createdAt,value
2022-11-09T00:00:45.233Z,12.49
2022-11-09T00:03:13.969Z,12.50
2022-11-09T00:05:43.062Z,12.50
2022-11-09T00:08:11.761Z,12.50
2022-11-09T00:10:38.593Z,12.55
2022-11-09T00:13:07.530Z,12.57
2022-11-09T00:15:34.112Z,12.54
2022-11-09T00:18:03.220Z,12.51
2022-11-09T00:20:32.126Z,12.43
2022-11-09T00:22:58.702Z,12.46
2022-11-09T00:25:27.418Z,12.48
2022-11-09T00:27:54.168Z,12.50
2022-11-09T00:30:23.274Z,12.38
2022-11-09T00:32:49.786Z,12.35
2022-11-09T00:35:16.356Z,12.36
2022-11-09T00:37:45.381Z,12.39
2022-11-09T00:40:12.026Z,12.40
2022-11-09T00:42:40.900Z,12.36
2022-11-09T00:45:12.096Z,12.31
2022-11-09T00:47:38.708Z,12.31
2022-11-09T00:50:05.778Z,12.33
2022-11-09T00:52:35.842Z,12.33
2022-11-09T00:55:02.429Z,12.36
2022-11-09T00:57:31.459Z,12.38
2022-11-09T00:59:58.038Z,12.42
2022-11-09T01:02:25.116Z,12.41
2022-11-09T01:04:55.360Z,12.33
2022-11-09T01:07:22.258Z,12.33
2022-11-09T01:09:51.218Z,12.33
2022-11-09T01:12:22.702Z,12.32
2022-11-09T01:14:51.240Z,12.33
2022-11-09T01:17:17.902Z,12.35
2022-11-09T01:19:46.648Z,12.38
2022-11-09T01:22:14.453Z,12.40
2022-11-09T01:24:40.960Z,12.41
2022-11-09T01:27:10.443Z,12.38
2022-11-09T01:29:37.007Z,12.39
2022-11-09T01:32:03.814Z,12.39
2022-11-09T01:34:31.689Z,12.39
2022-11-09T01:37:01.440Z,12.40
2022-11-09T01:39:29.585Z,12.37
2022-11-09T01:42:00.661Z,12.35
2022-11-09T01:44:27.597Z,12.34
2022-11-09T01:46:58.730Z,12.31
2022-11-09T01:49:37.891Z,12.27
2022-11-09T01:52:08.306Z,12.28
2022-11-09T01:54:42.158Z,12.28
2022-11-09T01:57:12.558Z,12.25
2022-11-09T01:59:41.538Z,12.20
2022-11-09T02:02:08.113Z,12.16
2022-11-09T02:04:39.749Z,12.15
2022-11-09T02:07:10.572Z,12.12
2022-11-09T02:09:39.157Z,12.14
2022-11-09T02:12:06.581Z,12.14
2022-11-09T02:14:36.489Z,12.13
2022-11-09T02:17:03.122Z,12.11
2022-11-09T02:19:30.451Z,12.08
2022-11-09T02:21:57.089Z,12.06
2022-11-09T02:24:24.805Z,12.11
2022-11-09T02:26:52.014Z,12.08
2022-11-09T02:29:21.953Z,12.08
2022-11-09T02:31:52.820Z,12.06
2022-11-09T02:34:22.465Z,12.02
2022-11-09T02:36:49.122Z,12.00
2022-11-09T02:39:21.298Z,11.99
2022-11-09T02:41:53.239Z,11.98
2022-11-09T02:44:20.050Z,11.99
2022-11-09T02:46:49.806Z,11.96
2022-11-09T02:49:16.404Z,11.92
2022-11-09T02:51:42.994Z,11.92
2022-11-09T02:54:10.199Z,11.92
2022-11-09T02:56:37.705Z,11.90
2022-11-09T02:59:04.448Z,11.91
2022-11-09T03:01:32.220Z,11.91
2022-11-09T03:03:58.805Z,11.92
2022-11-09T03:06:34.769Z,11.95
2022-11-09T03:09:06.827Z,11.95
2022-11-09T03:11:36.125Z,11.98
2022-11-09T03:14:04.087Z,12.03
2022-11-09T03:16:32.094Z,11.91
2022-11-09T03:19:00.845Z,12.07
2022-11-09T03:21:28.444Z,12.02
2022-11-09T03:23:57.403Z,12.00
2022-11-09T03:26:26.533Z,11.99
2022-11-09T03:28:53.403Z,11.98
2022-11-09T03:31:19.948Z,11.97
2022-11-09T03:33:48.424Z,11.96
2022-11-09T03:36:15.420Z,11.94
2022-11-09T03:38:42.179Z,11.95
2022-11-09T03:41:08.834Z,11.95
2022-11-09T03:43:36.380Z,11.94
2022-11-09T03:46:03.266Z,11.94
2022-11-09T03:48:29.874Z,11.93
2022-11-09T03:50:56.449Z,11.90
2022-11-09T03:53:23.168Z,11.86
2022-11-09T03:55:49.920Z,11.84
2022-11-09T03:58:16.425Z,11.85
2022-11-09T04:00:45.109Z,11.84
2022-11-09T04:03:11.716Z,11.86
2022-11-09T04:05:38.317Z,11.86
2022-11-09T04:08:07.246Z,11.86
2022-11-09T04:10:38.623Z,11.87
2022-11-09T04:13:05.129Z,11.89
2022-11-09T04:15:31.646Z,11.91
2022-11-09T04:17:58.638Z,11.91
2022-11-09T04:20:25.724Z,11.82
2022-11-09T04:22:58.763Z,11.81
2022-11-09T04:25:26.093Z,11.80
2022-11-09T04:27:59.525Z,11.78
2022-11-09T04:30:28.145Z,11.78
2022-11-09T04:32:57.970Z,11.83
2022-11-09T04:35:27.515Z,11.85
2022-11-09T04:37:58.695Z,11.85
2022-11-09T04:40:29.045Z,11.87
2022-11-09T04:43:01.406Z,11.85
2022-11-09T04:45:30.356Z,11.88
2022-11-09T04:47:57.968Z,11.89
2022-11-09T04:50:27.110Z,11.88
2022-11-09T04:52:53.814Z,11.90
2022-11-09T04:55:20.696Z,11.91
2022-11-09T04:57:47.461Z,11.92
2022-11-09T05:00:14.422Z,11.94
2022-11-09T05:02:41.107Z,11.92
2022-11-09T05:05:07.809Z,11.92
2022-11-09T05:07:34.514Z,11.88
2022-11-09T05:10:03.567Z,11.83
2022-11-09T05:12:30.079Z,11.84
2022-11-09T05:14:56.767Z,11.84
2022-11-09T05:17:23.349Z,11.87
2022-11-09T05:19:55.882Z,11.88
2022-11-09T05:22:41.623Z,11.88
2022-11-09T05:25:08.451Z,11.85
2022-11-09T05:27:37.350Z,11.85
2022-11-09T05:30:04.032Z,11.84
2022-11-09T05:32:33.497Z,11.85
2022-11-09T05:35:00.035Z,11.88
2022-11-09T05:37:29.133Z,11.87
2022-11-09T05:39:58.665Z,11.83
2022-11-09T05:42:25.217Z,11.78
2022-11-09T05:44:51.987Z,11.77
2022-11-09T05:47:20.218Z,11.80
2022-11-09T05:49:46.959Z,11.80
2022-11-09T05:52:13.529Z,11.83
2022-11-09T05:54:40.109Z,11.84
2022-11-09T05:57:09.137Z,11.83
2022-11-09T05:59:38.094Z,11.84
2022-11-09T06:02:04.754Z,11.84
2022-11-09T06:04:36.282Z,11.86
2022-11-09T06:07:02.978Z,11.87
2022-11-09T06:09:35.346Z,11.88
2022-11-09T06:12:01.864Z,11.85
2022-11-09T06:14:28.418Z,11.82
2022-11-09T06:16:57.300Z,11.77
2022-11-09T06:19:26.099Z,11.78
2022-11-09T06:21:52.610Z,11.78
2022-11-09T06:24:19.326Z,11.75
2022-11-09T06:26:45.891Z,11.72
2022-11-09T06:29:12.410Z,11.72
2022-11-09T06:31:44.479Z,11.74
2022-11-09T06:34:13.553Z,11.77
2022-11-09T06:36:40.097Z,11.76
2022-11-09T06:39:09.139Z,11.71
2022-11-09T06:41:35.809Z,11.69
2022-11-09T06:44:02.440Z,11.70
2022-11-09T06:46:29.183Z,11.72
2022-11-09T06:48:55.899Z,11.73
2022-11-09T06:51:22.508Z,11.72
2022-11-09T06:53:49.049Z,11.70
2022-11-09T06:56:17.583Z,11.68
2022-11-09T06:58:44.121Z,11.65
2022-11-09T07:01:14.664Z,11.70
2022-11-09T07:03:41.333Z,11.75
2022-11-09T07:06:08.663Z,11.83
2022-11-09T07:08:37.708Z,11.85
2022-11-09T07:11:05.191Z,11.85
2022-11-09T07:13:31.730Z,11.86
2022-11-09T07:16:00.819Z,11.89
2022-11-09T07:18:27.378Z,11.93
2022-11-09T07:20:53.860Z,11.95
2022-11-09T07:23:20.718Z,11.89
2022-11-09T07:25:49.878Z,11.94
2022-11-09T07:28:21.403Z,11.98
2022-11-09T07:30:51.947Z,12.05
2022-11-09T07:33:22.615Z,12.13
2022-11-09T07:35:49.538Z,12.21
2022-11-09T07:38:16.505Z,12.20
2022-11-09T07:40:47.947Z,12.25
2022-11-09T07:43:14.562Z,12.34
2022-11-09T07:45:42.529Z,12.42
2022-11-09T07:48:14.635Z,12.44
2022-11-09T07:50:43.853Z,12.46
2022-11-09T07:53:11.491Z,12.51
2022-11-09T07:55:37.985Z,12.53
2022-11-09T07:58:05.980Z,12.53
2022-11-09T08:00:33.289Z,12.48
2022-11-09T08:02:59.827Z,12.45
2022-11-09T08:05:28.396Z,12.47
2022-11-09T08:07:56.126Z,12.48
2022-11-09T08:10:22.748Z,12.50
2022-11-09T08:12:54.939Z,12.56
2022-11-09T08:15:23.982Z,12.59
2022-11-09T08:18:00.582Z,12.61
2022-11-09T08:20:27.192Z,12.59
2022-11-09T08:22:53.803Z,12.56
2022-11-09T08:25:22.801Z,12.49
2022-11-09T08:27:49.324Z,12.42
2022-11-09T08:30:17.489Z,12.41
2022-11-09T08:32:44.553Z,12.52
2022-11-09T08:35:17.681Z,12.58
2022-11-09T08:37:47.244Z,12.60
2022-11-09T08:40:15.155Z,12.62
2022-11-09T08:42:43.856Z,12.55
2022-11-09T08:45:12.777Z,12.55
2022-11-09T08:47:40.117Z,12.60
2022-11-09T08:50:10.069Z,12.71
2022-11-09T08:52:38.914Z,12.79
2022-11-09T08:55:05.592Z,12.79
2022-11-09T08:57:32.153Z,12.74
2022-11-09T08:59:58.845Z,12.75
2022-11-09T09:02:25.441Z,12.74
2022-11-09T09:04:51.966Z,12.78
2022-11-09T09:07:21.272Z,12.80
2022-11-09T09:09:47.932Z,12.72
2022-11-09T09:12:14.542Z,12.63
2022-11-09T09:14:41.138Z,12.51
2022-11-09T09:17:07.638Z,12.52
2022-11-09T09:19:36.326Z,12.56
2022-11-09T09:22:02.901Z,12.62
2022-11-09T09:24:31.919Z,12.65
2022-11-09T09:26:58.822Z,12.69
2022-11-09T09:29:25.326Z,12.62
2022-11-09T09:31:51.863Z,12.68
2022-11-09T09:34:18.438Z,12.74
2022-11-09T09:36:48.174Z,12.72
2022-11-09T09:39:15.606Z,12.72
2022-11-09T09:41:50.435Z,12.80
2022-11-09T09:44:25.282Z,12.87
2022-11-09T09:46:53.455Z,12.96
2022-11-09T09:49:25.244Z,12.98
2022-11-09T09:52:10.989Z,13.02
2022-11-09T09:54:44.879Z,13.00
2022-11-09T09:57:13.559Z,12.98
2022-11-09T09:59:47.696Z,13.00
2022-11-09T10:02:26.470Z,13.04
2022-11-09T10:04:53.643Z,13.09
2022-11-09T10:07:23.014Z,13.18
2022-11-09T10:09:52.629Z,13.21
2022-11-09T10:12:38.214Z,13.22
2022-11-09T10:15:17.053Z,13.30
2022-11-09T10:18:01.942Z,13.34
2022-11-09T10:20:28.479Z,13.35
2022-11-09T10:23:00.825Z,13.32
2022-11-09T10:25:50.335Z,13.28
2022-11-09T10:28:18.523Z,13.29
2022-11-09T10:30:45.171Z,13.26
2022-11-09T10:33:15.851Z,13.30
2022-11-09T10:36:06.845Z,13.30
2022-11-09T10:38:42.666Z,13.33
2022-11-09T10:41:27.508Z,13.38
2022-11-09T10:44:17.680Z,13.45
2022-11-09T10:47:02.899Z,13.47
2022-11-09T10:49:57.197Z,13.48
2022-11-09T10:52:47.712Z,13.49
2022-11-09T10:55:36.984Z,13.50
2022-11-09T10:58:30.453Z,13.48
2022-11-09T11:01:15.663Z,13.45
2022-11-09T11:04:13.096Z,13.47
2022-11-09T11:06:58.141Z,13.48
2022-11-09T11:09:43.784Z,13.48
2022-11-09T11:12:29.057Z,13.47
2022-11-09T11:15:24.570Z,13.46
2022-11-09T11:18:23.898Z,13.44
2022-11-09T11:21:18.733Z,13.43
2022-11-09T11:24:13.509Z,13.48
2022-11-09T11:27:10.214Z,13.52
2022-11-09T11:30:04.919Z,13.47
2022-11-09T11:32:52.489Z,13.48
2022-11-09T11:35:43.566Z,13.49
2022-11-09T11:38:28.532Z,13.46
2022-11-09T11:41:28.498Z,13.42
2022-11-09T11:44:15.665Z,13.37
2022-11-09T11:47:10.670Z,13.38
2022-11-09T11:49:59.058Z,13.38
2022-11-09T11:52:47.771Z,13.38
2022-11-09T11:55:39.126Z,13.37
2022-11-09T11:58:27.339Z,13.37
2022-11-09T12:01:27.312Z,13.37
2022-11-09T12:04:21.436Z,13.38
2022-11-09T12:07:18.595Z,13.36
2022-11-09T12:10:03.920Z,13.37
2022-11-09T12:12:51.965Z,13.37
2022-11-09T12:15:55.194Z,13.37
2022-11-09T12:18:45.758Z,13.41
2022-11-09T12:21:33.824Z,13.41
2022-11-09T12:24:24.079Z,13.37
2022-11-09T12:27:41.786Z,13.35
2022-11-09T12:30:53.347Z,13.33
2022-11-09T12:33:43.428Z,13.35
2022-11-09T12:36:32.701Z,13.34
2022-11-09T12:39:40.715Z,13.38
2022-11-09T12:42:34.238Z,13.44
2022-11-09T12:45:25.689Z,13.44
2022-11-09T12:48:24.828Z,13.44
2022-11-09T12:51:12.454Z,13.46
2022-11-09T12:54:00.290Z,13.47
2022-11-09T12:56:50.403Z,13.49
2022-11-09T12:59:35.480Z,13.49
2022-11-09T13:02:23.808Z,13.48
2022-11-09T13:05:27.078Z,13.46
2022-11-09T13:08:19.647Z,13.44
2022-11-09T13:11:31.325Z,13.42
2022-11-09T13:14:22.336Z,13.41
2022-11-09T13:17:26.049Z,13.45
2022-11-09T13:20:53.443Z,13.44
2022-11-09T13:23:59.385Z,13.45
2022-11-09T13:26:47.563Z,13.46
2022-11-09T13:29:41.625Z,13.28
2022-11-09T13:32:27.916Z,13.28
2022-11-09T13:35:35.887Z,13.17
2022-11-09T13:38:20.834Z,13.17
2022-11-09T13:41:27.300Z,13.22
2022-11-09T13:44:23.010Z,13.24
2022-11-09T13:47:22.575Z,13.24
2022-11-09T13:50:20.726Z,13.24
2022-11-09T13:53:26.108Z,13.26
2022-11-09T13:56:35.294Z,13.17
2022-11-09T13:59:27.124Z,13.18
2022-11-09T14:02:19.249Z,13.18
2022-11-09T14:05:05.129Z,13.06
2022-11-09T14:07:52.448Z,13.01
2022-11-09T14:10:46.896Z,13.01
2022-11-09T14:13:50.667Z,13.07
2022-11-09T14:16:44.751Z,13.14
2022-11-09T14:19:32.624Z,13.21
2022-11-09T14:22:19.146Z,13.21
2022-11-09T14:25:17.445Z,13.23
2022-11-09T14:28:05.045Z,13.25
2022-11-09T14:30:52.348Z,13.26
2022-11-09T14:33:39.610Z,13.24
2022-11-09T14:36:24.477Z,13.25
2022-11-09T14:39:17.374Z,13.27
2022-11-09T14:42:02.629Z,13.28
2022-11-09T14:44:47.561Z,13.30
2022-11-09T14:47:34.070Z,13.29
2022-11-09T14:50:29.683Z,13.33
2022-11-09T14:53:22.624Z,13.34
2022-11-09T14:56:10.867Z,13.34
2022-11-09T14:58:56.178Z,13.35
2022-11-09T15:01:41.298Z,13.33
2022-11-09T15:04:27.252Z,13.32
2022-11-09T15:07:18.023Z,13.30
2022-11-09T15:10:04.694Z,13.28
2022-11-09T15:12:51.134Z,13.30
2022-11-09T15:15:36.449Z,13.04
2022-11-09T15:18:34.550Z,13.22
2022-11-09T15:21:22.138Z,13.21
2022-11-09T15:24:10.222Z,13.20
2022-11-09T15:26:55.997Z,13.19
2022-11-09T15:29:42.080Z,13.16
2022-11-09T15:32:32.356Z,13.16
2022-11-09T15:35:18.267Z,13.20
2022-11-09T15:38:03.818Z,13.21
2022-11-09T15:40:59.054Z,13.20
2022-11-09T15:43:44.229Z,13.18
2022-11-09T15:46:32.290Z,13.19
2022-11-09T15:49:23.242Z,13.20
2022-11-09T15:52:09.552Z,13.19
2022-11-09T15:54:54.808Z,13.21
2022-11-09T15:57:44.722Z,13.24
2022-11-09T16:00:29.784Z,13.27
2022-11-09T16:03:18.304Z,13.27
2022-11-09T16:06:08.655Z,13.31
2022-11-09T16:08:58.647Z,13.33
2022-11-09T16:11:43.683Z,13.34
2022-11-09T16:14:30.991Z,13.34
2022-11-09T16:17:15.789Z,13.33
2022-11-09T16:20:00.945Z,13.34
2022-11-09T16:22:46.694Z,13.30
2022-11-09T16:25:34.011Z,13.28
2022-11-09T16:28:21.631Z,13.28
2022-11-09T16:31:09.561Z,13.30
2022-11-09T16:33:54.382Z,13.34
2022-11-09T16:36:46.035Z,13.35
2022-11-09T16:39:36.332Z,13.35
2022-11-09T16:42:21.679Z,13.32
2022-11-09T16:45:09.168Z,13.30
2022-11-09T16:47:56.367Z,13.30
2022-11-09T16:50:42.126Z,13.31
2022-11-09T16:53:29.606Z,13.31
2022-11-09T16:56:14.926Z,13.34
2022-11-09T16:59:02.717Z,13.37
2022-11-09T17:01:55.911Z,13.39
2022-11-09T17:04:41.087Z,13.37
2022-11-09T17:07:26.258Z,13.38
2022-11-09T17:10:13.665Z,13.40
2022-11-09T17:12:58.783Z,13.41
2022-11-09T17:15:47.023Z,13.41
2022-11-09T17:18:31.971Z,13.45
2022-11-09T17:21:17.165Z,13.47
2022-11-09T17:24:04.370Z,13.48
2022-11-09T17:26:52.114Z,13.51
2022-11-09T17:29:40.043Z,13.53
2022-11-09T17:32:28.103Z,13.51
2022-11-09T17:35:18.150Z,13.50
2022-11-09T17:38:03.612Z,13.49
2022-11-09T17:40:48.824Z,13.50
2022-11-09T17:43:34.276Z,13.52
2022-11-09T17:46:24.118Z,13.50
2022-11-09T17:49:10.365Z,13.53
2022-11-09T17:51:58.416Z,13.53
2022-11-09T17:54:43.642Z,13.56
2022-11-09T17:57:31.297Z,13.58
2022-11-09T18:00:16.414Z,13.59
2022-11-09T18:03:04.036Z,13.60
2022-11-09T18:05:48.833Z,13.61
2022-11-09T18:08:33.834Z,13.59
2022-11-09T18:11:18.982Z,13.61
2022-11-09T18:14:04.383Z,13.58
2022-11-09T18:16:49.451Z,13.55
2022-11-09T18:19:37.032Z,13.55
2022-11-09T18:22:22.359Z,13.57
2022-11-09T18:25:07.401Z,13.56
2022-11-09T18:27:52.658Z,13.55
2022-11-09T18:30:41.716Z,13.54
2022-11-09T18:33:26.957Z,13.56
2022-11-09T18:36:13.154Z,13.56
2022-11-09T18:38:58.331Z,13.50
2022-11-09T18:41:43.192Z,13.46
2022-11-09T18:44:28.303Z,13.47
2022-11-09T18:47:15.169Z,13.48
2022-11-09T18:49:59.997Z,13.39
2022-11-09T18:52:45.163Z,13.41
2022-11-09T18:55:30.294Z,13.42
2022-11-09T18:58:15.680Z,13.41
2022-11-09T19:01:03.953Z,13.34
2022-11-09T19:03:49.381Z,13.32
2022-11-09T19:06:34.809Z,13.23
2022-11-09T19:09:29.315Z,13.24
2022-11-09T19:12:14.848Z,13.27
2022-11-09T19:15:00.073Z,13.29
2022-11-09T19:17:45.019Z,13.33
2022-11-09T19:20:29.912Z,13.38
2022-11-09T19:23:15.156Z,13.39
2022-11-09T19:26:00.848Z,13.42
2022-11-09T19:28:46.026Z,13.44
2022-11-09T19:31:31.366Z,13.46
2022-11-09T19:34:17.302Z,13.47
2022-11-09T19:37:02.133Z,13.30
2022-11-09T19:39:49.902Z,13.25
2022-11-09T19:42:34.864Z,13.27
2022-11-09T19:45:19.630Z,13.23
2022-11-09T19:48:04.580Z,13.15
2022-11-09T19:50:50.436Z,13.04
2022-11-09T19:53:42.603Z,12.96
2022-11-09T19:56:28.663Z,13.05
2022-11-09T19:59:14.368Z,13.15
2022-11-09T20:01:59.289Z,13.04
2022-11-09T20:04:44.768Z,13.09
2022-11-09T20:07:32.753Z,13.12
2022-11-09T20:10:17.847Z,13.14
2022-11-09T20:13:02.679Z,13.16
2022-11-09T20:15:50.571Z,13.21
2022-11-09T20:18:36.283Z,13.22
2022-11-09T20:21:21.780Z,13.17
2022-11-09T20:24:07.643Z,13.16
2022-11-09T20:26:52.880Z,13.21
2022-11-09T20:29:38.290Z,13.27
2022-11-09T20:32:25.734Z,13.25
2022-11-09T20:35:13.356Z,13.28
2022-11-09T20:37:58.807Z,13.31
2022-11-09T20:40:52.239Z,13.36
2022-11-09T20:43:37.579Z,13.39
2022-11-09T20:46:23.296Z,13.31
2022-11-09T20:49:10.909Z,13.31
2022-11-09T20:51:55.816Z,13.33
2022-11-09T20:54:43.218Z,13.34
2022-11-09T20:57:28.237Z,13.24
2022-11-09T21:00:19.220Z,13.27
2022-11-09T21:03:06.540Z,13.28
2022-11-09T21:05:58.841Z,13.32
2022-11-09T21:08:45.200Z,13.37
2022-11-09T21:11:36.256Z,13.37
2022-11-09T21:14:21.128Z,13.36
2022-11-09T21:17:06.170Z,13.38
2022-11-09T21:19:51.467Z,13.28
2022-11-09T21:22:55.319Z,13.23
2022-11-09T21:25:59.970Z,13.23
2022-11-09T21:29:14.479Z,13.28
2022-11-09T21:32:02.342Z,13.33
2022-11-09T21:34:50.318Z,13.33
2022-11-09T21:37:35.582Z,13.35
2022-11-09T21:40:20.380Z,13.32
2022-11-09T21:43:05.278Z,13.24
2022-11-09T21:45:50.301Z,13.30
2022-11-09T21:48:35.542Z,13.32
2022-11-09T21:51:20.948Z,13.33
2022-11-09T21:54:06.520Z,13.32
2022-11-09T21:56:54.283Z,13.36
2022-11-09T21:59:39.318Z,13.40
2022-11-09T22:02:24.532Z,13.33
2022-11-09T22:05:09.679Z,13.26
2022-11-09T22:07:54.741Z,13.29
2022-11-09T22:10:42.135Z,13.36
2022-11-09T22:13:46.091Z,13.30
2022-11-09T22:16:31.810Z,13.33
2022-11-09T22:19:35.937Z,13.36
2022-11-09T22:22:20.880Z,13.36
2022-11-09T22:25:06.276Z,13.40
2022-11-09T22:27:51.454Z,13.46
2022-11-09T22:30:36.837Z,13.50
2022-11-09T22:33:27.095Z,13.52
2022-11-09T22:36:13.132Z,13.41
2022-11-09T22:38:58.189Z,13.39
2022-11-09T22:41:43.413Z,13.29
2022-11-09T22:44:28.215Z,13.25
2022-11-09T22:47:13.413Z,13.28
2022-11-09T22:49:58.321Z,13.31
2022-11-09T22:52:43.695Z,13.27
2022-11-09T22:55:28.754Z,13.32
2022-11-09T22:58:13.638Z,13.29
2022-11-09T23:01:12.243Z,13.28
2022-11-09T23:03:57.566Z,13.32
2022-11-09T23:06:42.474Z,13.37
2022-11-09T23:09:27.587Z,13.44
2022-11-09T23:12:12.450Z,13.48
2022-11-09T23:15:06.450Z,13.40
2022-11-09T23:18:24.675Z,13.33
2022-11-09T23:21:12.565Z,13.16
2022-11-09T23:24:00.610Z,13.11
2022-11-09T23:26:45.452Z,13.11
2022-11-09T23:29:30.249Z,13.18
2022-11-09T23:32:17.579Z,13.15
2022-11-09T23:35:04.906Z,13.20
2022-11-09T23:38:00.145Z,13.24
2022-11-09T23:40:45.034Z,13.26
2022-11-09T23:43:29.915Z,13.32
2022-11-09T23:46:15.528Z,13.38
2022-11-09T23:49:00.532Z,13.44
2022-11-09T23:51:45.445Z,13.47
2022-11-09T23:54:30.291Z,13.51
2022-11-09T23:57:17.714Z,13.41
